sensor_id;sensor_type;location;lat;lon;timestamp;temperature;humidity
6903;DHT22;20232;49.408;8.702;2022-10-16T00:15:49;17.10;99.90
6903;DHT22;20232;49.408;8.702;2022-10-16T00:18:15;17.20;99.90
6903;DHT22;20232;49.408;8.702;2022-10-16T00:20:40;17.20;99.90
6903;DHT22;20232;49.408;8.702;2022-10-16T00:23:06;17.20;99.90
6903;DHT22;20232;49.408;8.702;2022-10-16T00:25:32;17.20;99.90
6903;DHT22;20232;49.408;8.702;2022-10-16T00:28:01;17.20;99.90
6903;DHT22;20232;49.408;8.702;2022-10-16T00:30:27;17.20;99.90
6903;DHT22;20232;49.408;8.702;2022-10-16T00:32:53;17.20;99.90
6903;DHT22;20232;49.408;8.702;2022-10-16T00:35:19;17.20;99.90
6903;DHT22;20232;49.408;8.702;2022-10-16T00:37:44;17.20;99.90
6903;DHT22;20232;49.408;8.702;2022-10-16T00:40:10;17.20;99.90
6903;DHT22;20232;49.408;8.702;2022-10-16T00:42:36;17.10;99.90
6903;DHT22;20232;49.408;8.702;2022-10-16T00:45:02;17.00;99.90
6903;DHT22;20232;49.408;8.702;2022-10-16T00:47:32;16.90;99.90
6903;DHT22;20232;49.408;8.702;2022-10-16T00:50:04;16.90;99.90
6903;DHT22;20232;49.408;8.702;2022-10-16T00:52:32;16.90;99.90
6903;DHT22;20232;49.408;8.702;2022-10-16T00:54:58;16.90;99.90
6903;DHT22;20232;49.408;8.702;2022-10-16T00:57:24;16.90;99.90
6903;DHT22;20232;49.408;8.702;2022-10-16T00:59:50;16.90;99.90
6903;DHT22;20232;49.408;8.702;2022-10-16T01:02:16;16.90;99.90
6903;DHT22;20232;49.408;8.702;2022-10-16T01:04:50;16.90;99.90
6903;DHT22;20232;49.408;8.702;2022-10-16T01:13:03;16.90;99.90
6903;DHT22;20232;49.408;8.702;2022-10-16T01:18:16;16.90;99.90
6903;DHT22;20232;49.408;8.702;2022-10-16T01:21:04;16.80;99.90
6903;DHT22;20232;49.408;8.702;2022-10-16T01:29:03;16.70;99.90
6903;DHT22;20232;49.408;8.702;2022-10-16T01:31:34;16.70;99.90
6903;DHT22;20232;49.408;8.702;2022-10-16T01:34:12;16.70;99.90
6903;DHT22;20232;49.408;8.702;2022-10-16T01:36:43;16.70;99.90
6903;DHT22;20232;49.408;8.702;2022-10-16T01:39:11;16.70;99.90
6903;DHT22;20232;49.408;8.702;2022-10-16T01:41:41;16.70;99.90
6903;DHT22;20232;49.408;8.702;2022-10-16T01:44:11;16.60;99.90
6903;DHT22;20232;49.408;8.702;2022-10-16T01:46:42;16.60;99.90
6903;DHT22;20232;49.408;8.702;2022-10-16T01:49:09;16.60;99.90
6903;DHT22;20232;49.408;8.702;2022-10-16T01:51:37;16.60;99.90
6903;DHT22;20232;49.408;8.702;2022-10-16T01:54:06;16.60;99.90
6903;DHT22;20232;49.408;8.702;2022-10-16T01:56:34;16.60;99.90
6903;DHT22;20232;49.408;8.702;2022-10-16T01:59:05;16.50;99.90
6903;DHT22;20232;49.408;8.702;2022-10-16T02:01:34;16.50;99.90
6903;DHT22;20232;49.408;8.702;2022-10-16T02:04:10;16.50;99.90
6903;DHT22;20232;49.408;8.702;2022-10-16T02:06:36;16.50;99.90
6903;DHT22;20232;49.408;8.702;2022-10-16T02:09:02;16.50;99.90
6903;DHT22;20232;49.408;8.702;2022-10-16T02:11:28;16.40;99.90
6903;DHT22;20232;49.408;8.702;2022-10-16T02:13:59;16.40;99.90
6903;DHT22;20232;49.408;8.702;2022-10-16T02:16:44;16.40;99.90
6903;DHT22;20232;49.408;8.702;2022-10-16T02:19:13;16.40;99.90
6903;DHT22;20232;49.408;8.702;2022-10-16T02:21:46;16.40;99.90
6903;DHT22;20232;49.408;8.702;2022-10-16T02:27:05;16.40;99.90
6903;DHT22;20232;49.408;8.702;2022-10-16T02:29:38;16.40;99.90
6903;DHT22;20232;49.408;8.702;2022-10-16T02:32:07;16.40;99.90
6903;DHT22;20232;49.408;8.702;2022-10-16T02:34:34;16.50;99.90
6903;DHT22;20232;49.408;8.702;2022-10-16T02:37:04;16.50;99.90
6903;DHT22;20232;49.408;8.702;2022-10-16T02:39:30;16.50;99.90
6903;DHT22;20232;49.408;8.702;2022-10-16T02:41:56;16.40;99.90
6903;DHT22;20232;49.408;8.702;2022-10-16T02:44:22;16.40;99.90
6903;DHT22;20232;49.408;8.702;2022-10-16T02:46:47;16.30;99.90
6903;DHT22;20232;49.408;8.702;2022-10-16T02:49:13;16.20;99.90
6903;DHT22;20232;49.408;8.702;2022-10-16T02:51:38;16.20;99.90
6903;DHT22;20232;49.408;8.702;2022-10-16T02:54:04;16.20;99.90
6903;DHT22;20232;49.408;8.702;2022-10-16T02:56:29;16.10;99.90
6903;DHT22;20232;49.408;8.702;2022-10-16T02:58:56;16.10;99.90
6903;DHT22;20232;49.408;8.702;2022-10-16T03:01:21;16.00;99.90
6903;DHT22;20232;49.408;8.702;2022-10-16T03:03:47;16.00;99.90
6903;DHT22;20232;49.408;8.702;2022-10-16T03:06:13;16.00;99.90
6903;DHT22;20232;49.408;8.702;2022-10-16T03:08:38;16.00;99.90
6903;DHT22;20232;49.408;8.702;2022-10-16T03:11:04;16.00;99.90
6903;DHT22;20232;49.408;8.702;2022-10-16T03:13:30;16.00;99.90
6903;DHT22;20232;49.408;8.702;2022-10-16T03:15:55;16.00;99.90
6903;DHT22;20232;49.408;8.702;2022-10-16T03:18:21;16.00;99.90
6903;DHT22;20232;49.408;8.702;2022-10-16T03:20:46;16.00;99.90
6903;DHT22;20232;49.408;8.702;2022-10-16T03:23:12;16.00;99.90
6903;DHT22;20232;49.408;8.702;2022-10-16T03:25:38;16.00;99.90
6903;DHT22;20232;49.408;8.702;2022-10-16T03:28:03;16.00;99.90
6903;DHT22;20232;49.408;8.702;2022-10-16T03:30:29;16.00;99.90
6903;DHT22;20232;49.408;8.702;2022-10-16T03:32:54;16.10;99.90
6903;DHT22;20232;49.408;8.702;2022-10-16T03:35:23;16.00;99.90
6903;DHT22;20232;49.408;8.702;2022-10-16T03:37:49;16.00;99.90
6903;DHT22;20232;49.408;8.702;2022-10-16T03:40:15;16.00;99.90
6903;DHT22;20232;49.408;8.702;2022-10-16T03:42:42;16.00;99.90
6903;DHT22;20232;49.408;8.702;2022-10-16T03:45:09;15.90;99.90
6903;DHT22;20232;49.408;8.702;2022-10-16T03:47:35;15.90;99.90
6903;DHT22;20232;49.408;8.702;2022-10-16T03:50:01;15.90;99.90
6903;DHT22;20232;49.408;8.702;2022-10-16T03:52:27;15.90;99.90
6903;DHT22;20232;49.408;8.702;2022-10-16T03:54:52;15.90;99.90
6903;DHT22;20232;49.408;8.702;2022-10-16T03:57:18;15.90;99.90
6903;DHT22;20232;49.408;8.702;2022-10-16T03:59:43;15.80;99.90
6903;DHT22;20232;49.408;8.702;2022-10-16T04:02:09;15.80;99.90
6903;DHT22;20232;49.408;8.702;2022-10-16T04:04:35;15.80;99.90
6903;DHT22;20232;49.408;8.702;2022-10-16T04:07:00;15.90;99.90
6903;DHT22;20232;49.408;8.702;2022-10-16T04:09:26;15.90;99.90
6903;DHT22;20232;49.408;8.702;2022-10-16T04:11:52;15.90;99.90
6903;DHT22;20232;49.408;8.702;2022-10-16T04:14:17;15.90;99.90
6903;DHT22;20232;49.408;8.702;2022-10-16T04:16:43;15.90;99.90
6903;DHT22;20232;49.408;8.702;2022-10-16T04:19:09;15.90;99.90
6903;DHT22;20232;49.408;8.702;2022-10-16T04:21:36;15.90;99.90
6903;DHT22;20232;49.408;8.702;2022-10-16T04:24:01;16.00;99.90
6903;DHT22;20232;49.408;8.702;2022-10-16T04:26:27;16.00;99.90
6903;DHT22;20232;49.408;8.702;2022-10-16T04:28:52;16.00;99.90
6903;DHT22;20232;49.408;8.702;2022-10-16T04:31:19;16.00;99.90
6903;DHT22;20232;49.408;8.702;2022-10-16T04:33:45;16.00;99.90
6903;DHT22;20232;49.408;8.702;2022-10-16T04:36:10;16.00;99.90
6903;DHT22;20232;49.408;8.702;2022-10-16T04:38:36;16.10;99.90
6903;DHT22;20232;49.408;8.702;2022-10-16T04:41:03;16.10;99.90
6903;DHT22;20232;49.408;8.702;2022-10-16T04:43:29;16.10;99.90
6903;DHT22;20232;49.408;8.702;2022-10-16T04:45:54;16.00;99.90
6903;DHT22;20232;49.408;8.702;2022-10-16T04:48:20;16.00;99.90
6903;DHT22;20232;49.408;8.702;2022-10-16T04:50:46;16.00;99.90
6903;DHT22;20232;49.408;8.702;2022-10-16T04:53:12;15.90;99.90
6903;DHT22;20232;49.408;8.702;2022-10-16T04:55:37;15.90;99.90
6903;DHT22;20232;49.408;8.702;2022-10-16T04:58:03;15.90;99.90
6903;DHT22;20232;49.408;8.702;2022-10-16T05:00:29;15.90;99.90
6903;DHT22;20232;49.408;8.702;2022-10-16T05:02:55;15.80;99.90
6903;DHT22;20232;49.408;8.702;2022-10-16T05:05:20;15.80;99.90
6903;DHT22;20232;49.408;8.702;2022-10-16T05:07:47;15.80;99.90
6903;DHT22;20232;49.408;8.702;2022-10-16T05:10:13;15.80;99.90
6903;DHT22;20232;49.408;8.702;2022-10-16T05:12:38;15.80;99.90
6903;DHT22;20232;49.408;8.702;2022-10-16T05:15:04;15.80;99.90
6903;DHT22;20232;49.408;8.702;2022-10-16T05:17:30;15.70;99.90
6903;DHT22;20232;49.408;8.702;2022-10-16T05:19:56;15.70;99.90
6903;DHT22;20232;49.408;8.702;2022-10-16T05:22:21;15.70;99.90
6903;DHT22;20232;49.408;8.702;2022-10-16T05:24:47;15.70;99.90
6903;DHT22;20232;49.408;8.702;2022-10-16T05:27:12;15.70;99.90
6903;DHT22;20232;49.408;8.702;2022-10-16T05:29:45;15.70;99.90
6903;DHT22;20232;49.408;8.702;2022-10-16T05:32:12;15.70;99.90
6903;DHT22;20232;49.408;8.702;2022-10-16T05:34:37;15.70;99.90
6903;DHT22;20232;49.408;8.702;2022-10-16T05:37:03;15.70;99.90
6903;DHT22;20232;49.408;8.702;2022-10-16T05:39:28;15.70;99.90
6903;DHT22;20232;49.408;8.702;2022-10-16T05:41:54;15.70;99.90
6903;DHT22;20232;49.408;8.702;2022-10-16T05:44:20;15.70;99.90
6903;DHT22;20232;49.408;8.702;2022-10-16T05:46:46;15.70;99.90
6903;DHT22;20232;49.408;8.702;2022-10-16T05:49:12;15.70;99.90
6903;DHT22;20232;49.408;8.702;2022-10-16T05:51:37;15.60;99.90
6903;DHT22;20232;49.408;8.702;2022-10-16T05:54:03;15.60;99.90
6903;DHT22;20232;49.408;8.702;2022-10-16T05:56:29;15.60;99.90
6903;DHT22;20232;49.408;8.702;2022-10-16T05:58:54;15.70;99.90
6903;DHT22;20232;49.408;8.702;2022-10-16T06:01:20;15.70;99.90
6903;DHT22;20232;49.408;8.702;2022-10-16T06:03:52;15.70;99.90
6903;DHT22;20232;49.408;8.702;2022-10-16T06:06:20;15.70;99.90
6903;DHT22;20232;49.408;8.702;2022-10-16T06:08:46;15.70;99.90
6903;DHT22;20232;49.408;8.702;2022-10-16T06:11:17;15.70;99.90
6903;DHT22;20232;49.408;8.702;2022-10-16T06:13:43;15.70;99.90
6903;DHT22;20232;49.408;8.702;2022-10-16T06:16:11;15.80;99.90
6903;DHT22;20232;49.408;8.702;2022-10-16T06:18:38;15.80;99.90
6903;DHT22;20232;49.408;8.702;2022-10-16T06:21:16;15.80;99.90
6903;DHT22;20232;49.408;8.702;2022-10-16T06:23:42;15.80;99.90
6903;DHT22;20232;49.408;8.702;2022-10-16T06:26:13;15.80;99.90
6903;DHT22;20232;49.408;8.702;2022-10-16T06:28:38;15.80;99.90
6903;DHT22;20232;49.408;8.702;2022-10-16T06:31:06;15.90;99.90
6903;DHT22;20232;49.408;8.702;2022-10-16T06:33:32;15.90;99.90
6903;DHT22;20232;49.408;8.702;2022-10-16T06:36:06;15.90;99.90
6903;DHT22;20232;49.408;8.702;2022-10-16T06:38:34;15.90;99.90
6903;DHT22;20232;49.408;8.702;2022-10-16T06:40:59;16.00;99.90
6903;DHT22;20232;49.408;8.702;2022-10-16T06:43:25;16.00;99.90
6903;DHT22;20232;49.408;8.702;2022-10-16T06:45:55;16.00;99.90
6903;DHT22;20232;49.408;8.702;2022-10-16T06:48:22;16.10;99.90
6903;DHT22;20232;49.408;8.702;2022-10-16T06:51:06;16.10;99.90
6903;DHT22;20232;49.408;8.702;2022-10-16T06:53:34;16.10;99.90
6903;DHT22;20232;49.408;8.702;2022-10-16T06:56:11;16.10;99.90
6903;DHT22;20232;49.408;8.702;2022-10-16T06:58:37;16.10;99.90
6903;DHT22;20232;49.408;8.702;2022-10-16T07:01:04;16.20;99.90
6903;DHT22;20232;49.408;8.702;2022-10-16T07:03:29;16.20;99.90
6903;DHT22;20232;49.408;8.702;2022-10-16T07:05:55;16.30;99.90
6903;DHT22;20232;49.408;8.702;2022-10-16T07:08:21;16.40;99.90
6903;DHT22;20232;49.408;8.702;2022-10-16T07:10:47;16.40;99.90
6903;DHT22;20232;49.408;8.702;2022-10-16T07:13:13;16.40;99.90
6903;DHT22;20232;49.408;8.702;2022-10-16T07:15:40;16.50;99.90
6903;DHT22;20232;49.408;8.702;2022-10-16T07:18:06;16.50;99.90
6903;DHT22;20232;49.408;8.702;2022-10-16T07:20:32;16.50;99.90
6903;DHT22;20232;49.408;8.702;2022-10-16T07:22:57;16.60;99.90
6903;DHT22;20232;49.408;8.702;2022-10-16T07:25:23;16.70;99.90
6903;DHT22;20232;49.408;8.702;2022-10-16T07:27:48;16.80;99.90
6903;DHT22;20232;49.408;8.702;2022-10-16T07:30:14;16.90;99.90
6903;DHT22;20232;49.408;8.702;2022-10-16T07:32:40;17.10;99.90
6903;DHT22;20232;49.408;8.702;2022-10-16T07:35:06;17.30;99.90
6903;DHT22;20232;49.408;8.702;2022-10-16T07:37:31;17.30;99.90
6903;DHT22;20232;49.408;8.702;2022-10-16T07:39:57;17.40;99.90
6903;DHT22;20232;49.408;8.702;2022-10-16T07:42:22;17.50;99.90
6903;DHT22;20232;49.408;8.702;2022-10-16T07:44:48;17.70;99.90
6903;DHT22;20232;49.408;8.702;2022-10-16T07:47:14;17.60;99.90
6903;DHT22;20232;49.408;8.702;2022-10-16T07:49:39;17.60;99.90
6903;DHT22;20232;49.408;8.702;2022-10-16T07:52:05;17.40;99.90
6903;DHT22;20232;49.408;8.702;2022-10-16T07:54:30;17.40;99.90
6903;DHT22;20232;49.408;8.702;2022-10-16T07:56:56;17.40;99.90
6903;DHT22;20232;49.408;8.702;2022-10-16T07:59:21;17.60;99.90
6903;DHT22;20232;49.408;8.702;2022-10-16T08:01:49;17.70;99.90
6903;DHT22;20232;49.408;8.702;2022-10-16T08:04:14;17.80;99.90
6903;DHT22;20232;49.408;8.702;2022-10-16T08:06:40;17.90;99.90
6903;DHT22;20232;49.408;8.702;2022-10-16T08:09:07;18.00;99.90
6903;DHT22;20232;49.408;8.702;2022-10-16T08:11:33;17.90;99.90
6903;DHT22;20232;49.408;8.702;2022-10-16T08:13:59;18.00;99.90
6903;DHT22;20232;49.408;8.702;2022-10-16T08:16:25;18.10;99.90
6903;DHT22;20232;49.408;8.702;2022-10-16T08:18:51;18.20;99.90
6903;DHT22;20232;49.408;8.702;2022-10-16T08:21:19;18.20;99.90
6903;DHT22;20232;49.408;8.702;2022-10-16T08:23:45;18.30;99.90
6903;DHT22;20232;49.408;8.702;2022-10-16T08:26:12;18.40;99.90
6903;DHT22;20232;49.408;8.702;2022-10-16T08:28:38;18.40;99.90
6903;DHT22;20232;49.408;8.702;2022-10-16T08:31:12;18.40;99.90
6903;DHT22;20232;49.408;8.702;2022-10-16T08:33:39;18.50;99.90
6903;DHT22;20232;49.408;8.702;2022-10-16T08:36:06;18.60;99.90
6903;DHT22;20232;49.408;8.702;2022-10-16T08:38:33;18.50;99.90
6903;DHT22;20232;49.408;8.702;2022-10-16T08:43:54;18.50;99.90
6903;DHT22;20232;49.408;8.702;2022-10-16T08:46:51;18.70;99.90
6903;DHT22;20232;49.408;8.702;2022-10-16T08:49:18;18.90;99.90
6903;DHT22;20232;49.408;8.702;2022-10-16T08:51:44;18.90;99.90
6903;DHT22;20232;49.408;8.702;2022-10-16T08:54:34;18.60;99.90
6903;DHT22;20232;49.408;8.702;2022-10-16T08:57:13;18.70;99.90
6903;DHT22;20232;49.408;8.702;2022-10-16T08:59:39;18.70;99.90
6903;DHT22;20232;49.408;8.702;2022-10-16T09:02:23;19.00;99.90
6903;DHT22;20232;49.408;8.702;2022-10-16T09:15:53;20.30;99.90
6903;DHT22;20232;49.408;8.702;2022-10-16T09:21:28;20.00;99.90
6903;DHT22;20232;49.408;8.702;2022-10-16T09:24:07;19.90;99.90
6903;DHT22;20232;49.408;8.702;2022-10-16T09:26:35;20.00;99.90
6903;DHT22;20232;49.408;8.702;2022-10-16T09:29:01;20.20;99.90
6903;DHT22;20232;49.408;8.702;2022-10-16T11:07:24;30.90;99.90
6903;DHT22;20232;49.408;8.702;2022-10-16T11:09:56;31.30;97.50
6903;DHT22;20232;49.408;8.702;2022-10-16T11:12:50;31.80;95.90
6903;DHT22;20232;49.408;8.702;2022-10-16T11:15:31;32.00;95.20
6903;DHT22;20232;49.408;8.702;2022-10-16T11:18:21;32.80;94.10
6903;DHT22;20232;49.408;8.702;2022-10-16T11:21:02;33.90;90.80
6903;DHT22;20232;49.408;8.702;2022-10-16T11:23:49;33.80;90.40
6903;DHT22;20232;49.408;8.702;2022-10-16T11:26:21;34.10;84.00
6903;DHT22;20232;49.408;8.702;2022-10-16T11:28:50;33.30;82.10
6903;DHT22;20232;49.408;8.702;2022-10-16T11:41:55;32.10;85.60
6903;DHT22;20232;49.408;8.702;2022-10-16T11:47:45;32.80;86.10
6903;DHT22;20232;49.408;8.702;2022-10-16T11:55:37;33.40;81.80
6903;DHT22;20232;49.408;8.702;2022-10-16T12:00:46;33.50;80.40
6903;DHT22;20232;49.408;8.702;2022-10-16T12:03:41;32.50;81.90
6903;DHT22;20232;49.408;8.702;2022-10-16T12:06:37;31.30;86.30
6903;DHT22;20232;49.408;8.702;2022-10-16T12:09:20;31.30;88.40
6903;DHT22;20232;49.408;8.702;2022-10-16T12:11:47;32.10;79.10
6903;DHT22;20232;49.408;8.702;2022-10-16T12:26:58;31.70;84.30
6903;DHT22;20232;49.408;8.702;2022-10-16T12:29:41;25.60;96.10
6903;DHT22;20232;49.408;8.702;2022-10-16T12:32:33;25.00;97.30
6903;DHT22;20232;49.408;8.702;2022-10-16T12:35:00;24.60;99.90
6903;DHT22;20232;49.408;8.702;2022-10-16T12:44:49;24.50;99.90
6903;DHT22;20232;49.408;8.702;2022-10-16T12:47:24;25.60;99.90
6903;DHT22;20232;49.408;8.702;2022-10-16T12:57:42;26.30;99.90
6903;DHT22;20232;49.408;8.702;2022-10-16T13:21:37;25.60;99.90
6903;DHT22;20232;49.408;8.702;2022-10-16T13:27:34;24.40;99.90
6903;DHT22;20232;49.408;8.702;2022-10-16T13:30:29;23.80;99.90
6903;DHT22;20232;49.408;8.702;2022-10-16T13:33:06;23.10;99.90
6903;DHT22;20232;49.408;8.702;2022-10-16T13:35:34;22.80;99.90
6903;DHT22;20232;49.408;8.702;2022-10-16T13:38:05;22.50;99.90
6903;DHT22;20232;49.408;8.702;2022-10-16T14:00:34;22.30;99.90
6903;DHT22;20232;49.408;8.702;2022-10-16T14:03:07;21.00;99.90
6903;DHT22;20232;49.408;8.702;2022-10-16T14:05:33;20.60;99.90
6903;DHT22;20232;49.408;8.702;2022-10-16T14:08:00;20.50;99.90
6903;DHT22;20232;49.408;8.702;2022-10-16T14:10:29;20.60;99.90
6903;DHT22;20232;49.408;8.702;2022-10-16T14:13:05;20.70;99.90
6903;DHT22;20232;49.408;8.702;2022-10-16T14:15:33;20.70;99.90
6903;DHT22;20232;49.408;8.702;2022-10-16T14:18:00;20.50;99.90
6903;DHT22;20232;49.408;8.702;2022-10-16T14:20:28;20.30;99.90
6903;DHT22;20232;49.408;8.702;2022-10-16T14:23:18;20.10;99.90
6903;DHT22;20232;49.408;8.702;2022-10-16T14:25:44;20.10;99.90
6903;DHT22;20232;49.408;8.702;2022-10-16T14:28:17;20.10;99.90
6903;DHT22;20232;49.408;8.702;2022-10-16T14:30:54;20.10;99.90
6903;DHT22;20232;49.408;8.702;2022-10-16T14:33:41;20.20;99.90
6903;DHT22;20232;49.408;8.702;2022-10-16T14:36:13;20.10;99.90
6903;DHT22;20232;49.408;8.702;2022-10-16T14:38:41;20.00;99.90
6903;DHT22;20232;49.408;8.702;2022-10-16T14:41:08;19.90;99.90
6903;DHT22;20232;49.408;8.702;2022-10-16T14:43:42;19.90;99.90
6903;DHT22;20232;49.408;8.702;2022-10-16T14:46:16;19.80;99.90
6903;DHT22;20232;49.408;8.702;2022-10-16T14:48:43;19.80;99.90
6903;DHT22;20232;49.408;8.702;2022-10-16T14:51:17;19.60;99.90
6903;DHT22;20232;49.408;8.702;2022-10-16T14:53:43;19.50;99.90
6903;DHT22;20232;49.408;8.702;2022-10-16T14:56:18;19.40;99.90
6903;DHT22;20232;49.408;8.702;2022-10-16T14:58:44;19.40;99.90
6903;DHT22;20232;49.408;8.702;2022-10-16T15:01:10;19.40;99.90
6903;DHT22;20232;49.408;8.702;2022-10-16T15:03:37;19.40;99.90
6903;DHT22;20232;49.408;8.702;2022-10-16T15:06:03;19.60;99.90
6903;DHT22;20232;49.408;8.702;2022-10-16T15:08:28;19.90;99.90
6903;DHT22;20232;49.408;8.702;2022-10-16T15:10:54;20.30;99.90
6903;DHT22;20232;49.408;8.702;2022-10-16T15:13:20;20.60;99.90
6903;DHT22;20232;49.408;8.702;2022-10-16T15:15:46;20.80;99.90
6903;DHT22;20232;49.408;8.702;2022-10-16T15:18:12;21.30;99.90
6903;DHT22;20232;49.408;8.702;2022-10-16T15:20:40;21.40;99.90
6903;DHT22;20232;49.408;8.702;2022-10-16T15:23:16;21.40;99.90
6903;DHT22;20232;49.408;8.702;2022-10-16T15:25:46;21.30;99.90
6903;DHT22;20232;49.408;8.702;2022-10-16T15:28:13;21.20;99.90
6903;DHT22;20232;49.408;8.702;2022-10-16T15:30:39;20.80;99.90
6903;DHT22;20232;49.408;8.702;2022-10-16T15:33:08;20.30;99.90
6903;DHT22;20232;49.408;8.702;2022-10-16T15:35:36;20.10;99.90
6903;DHT22;20232;49.408;8.702;2022-10-16T15:38:02;19.90;99.90
6903;DHT22;20232;49.408;8.702;2022-10-16T15:40:27;19.60;99.90
6903;DHT22;20232;49.408;8.702;2022-10-16T15:42:53;19.40;99.90
6903;DHT22;20232;49.408;8.702;2022-10-16T15:45:18;19.30;99.90
6903;DHT22;20232;49.408;8.702;2022-10-16T15:47:45;19.20;99.90
6903;DHT22;20232;49.408;8.702;2022-10-16T15:50:12;19.10;99.90
6903;DHT22;20232;49.408;8.702;2022-10-16T15:52:39;19.00;99.90
6903;DHT22;20232;49.408;8.702;2022-10-16T15:55:09;18.90;99.90
6903;DHT22;20232;49.408;8.702;2022-10-16T15:57:36;18.90;99.90
6903;DHT22;20232;49.408;8.702;2022-10-16T16:00:05;19.00;99.90
6903;DHT22;20232;49.408;8.702;2022-10-16T16:02:31;19.10;99.90
6903;DHT22;20232;49.408;8.702;2022-10-16T16:04:57;19.00;99.90
6903;DHT22;20232;49.408;8.702;2022-10-16T16:07:22;18.80;99.90
6903;DHT22;20232;49.408;8.702;2022-10-16T16:09:48;18.60;99.90
6903;DHT22;20232;49.408;8.702;2022-10-16T16:12:13;18.60;99.90
6903;DHT22;20232;49.408;8.702;2022-10-16T16:14:39;18.50;99.90
6903;DHT22;20232;49.408;8.702;2022-10-16T16:17:05;18.50;99.90
6903;DHT22;20232;49.408;8.702;2022-10-16T16:19:30;18.30;99.90
6903;DHT22;20232;49.408;8.702;2022-10-16T16:21:57;18.20;99.90
6903;DHT22;20232;49.408;8.702;2022-10-16T16:24:22;18.20;99.90
6903;DHT22;20232;49.408;8.702;2022-10-16T16:26:48;18.00;99.90
6903;DHT22;20232;49.408;8.702;2022-10-16T16:29:15;18.00;99.90
6903;DHT22;20232;49.408;8.702;2022-10-16T16:31:41;17.90;99.90
6903;DHT22;20232;49.408;8.702;2022-10-16T16:34:08;17.90;99.90
6903;DHT22;20232;49.408;8.702;2022-10-16T16:36:34;17.80;99.90
6903;DHT22;20232;49.408;8.702;2022-10-16T16:39:00;17.70;99.90
6903;DHT22;20232;49.408;8.702;2022-10-16T16:41:27;17.60;99.90
6903;DHT22;20232;49.408;8.702;2022-10-16T16:43:54;17.50;99.90
6903;DHT22;20232;49.408;8.702;2022-10-16T16:46:20;17.50;99.90
6903;DHT22;20232;49.408;8.702;2022-10-16T16:48:46;17.40;99.90
6903;DHT22;20232;49.408;8.702;2022-10-16T16:51:16;17.40;99.90
6903;DHT22;20232;49.408;8.702;2022-10-16T16:53:44;17.30;99.90
6903;DHT22;20232;49.408;8.702;2022-10-16T16:56:10;17.30;99.90
6903;DHT22;20232;49.408;8.702;2022-10-16T16:58:36;17.20;99.90
6903;DHT22;20232;49.408;8.702;2022-10-16T17:01:02;17.10;99.90
6903;DHT22;20232;49.408;8.702;2022-10-16T17:03:34;17.00;99.90
6903;DHT22;20232;49.408;8.702;2022-10-16T17:06:07;17.00;99.90
6903;DHT22;20232;49.408;8.702;2022-10-16T17:08:35;16.90;99.90
6903;DHT22;20232;49.408;8.702;2022-10-16T17:11:01;16.80;99.90
6903;DHT22;20232;49.408;8.702;2022-10-16T22:46:56;16.80;99.90
6903;DHT22;20232;49.408;8.702;2022-10-16T22:49:22;15.20;99.90
6903;DHT22;20232;49.408;8.702;2022-10-16T22:51:49;15.10;99.90
6903;DHT22;20232;49.408;8.702;2022-10-16T22:54:14;15.10;99.90
6903;DHT22;20232;49.408;8.702;2022-10-16T22:56:40;15.00;99.90
6903;DHT22;20232;49.408;8.702;2022-10-16T22:59:06;15.00;99.90
6903;DHT22;20232;49.408;8.702;2022-10-16T23:01:35;15.00;99.90
6903;DHT22;20232;49.408;8.702;2022-10-16T23:04:01;15.00;99.90
6903;DHT22;20232;49.408;8.702;2022-10-16T23:06:27;14.90;99.90
6903;DHT22;20232;49.408;8.702;2022-10-16T23:08:54;14.90;99.90
6903;DHT22;20232;49.408;8.702;2022-10-16T23:11:20;14.90;99.90
6903;DHT22;20232;49.408;8.702;2022-10-16T23:13:46;14.90;99.90
6903;DHT22;20232;49.408;8.702;2022-10-16T23:16:14;14.80;99.90
6903;DHT22;20232;49.408;8.702;2022-10-16T23:18:41;14.80;99.90
6903;DHT22;20232;49.408;8.702;2022-10-16T23:21:10;14.80;99.90
6903;DHT22;20232;49.408;8.702;2022-10-16T23:23:37;14.80;99.90
6903;DHT22;20232;49.408;8.702;2022-10-16T23:26:10;14.80;99.90
6903;DHT22;20232;49.408;8.702;2022-10-16T23:28:38;14.70;99.90
6903;DHT22;20232;49.408;8.702;2022-10-16T23:31:05;14.70;99.90
6903;DHT22;20232;49.408;8.702;2022-10-16T23:33:32;14.60;99.90
6903;DHT22;20232;49.408;8.702;2022-10-16T23:35:58;14.60;99.90
6903;DHT22;20232;49.408;8.702;2022-10-16T23:38:24;14.60;99.90
6903;DHT22;20232;49.408;8.702;2022-10-16T23:40:49;14.50;99.90
6903;DHT22;20232;49.408;8.702;2022-10-16T23:43:15;14.50;99.90
6903;DHT22;20232;49.408;8.702;2022-10-16T23:45:41;14.50;99.90
6903;DHT22;20232;49.408;8.702;2022-10-16T23:48:07;14.60;99.90
6903;DHT22;20232;49.408;8.702;2022-10-16T23:50:32;14.50;99.90
6903;DHT22;20232;49.408;8.702;2022-10-16T23:52:58;14.50;99.90
6903;DHT22;20232;49.408;8.702;2022-10-16T23:55:23;14.40;99.90
6903;DHT22;20232;49.408;8.702;2022-10-16T23:57:49;14.40;99.90
